Pointe A La Hache, Louisiana
Current Conditions -  °F | °C
As of 8:55 PM on Wednesday 26 Nov 2014 (Local Time) from KNBG Reporting Station
Clear Clear  
Wind Chill: 55°   Ceiling: Unl
Heat Index: 55°   Visibility: 10mi
Dew Point: 45°   Wind: 7mph
Humidity: 69%   Direction: 230°SW
Pressure: 30.24"   Gusts: NA
Location:  29.58°N, 89.79°W
Report Text: KNBG 270255Z 23006KT 10SM CLR 13/07 A3024 RMK AO2 SLP241 T01280072 51014 $
Loading
Personal Weather Stations






























Interactive Weather Map New forecast layout! Learn more

10-Day Weather Forecast

Advertisements
Track Severe Weather on mobile